sensor_id;sensor_type;location;lat;lon;timestamp;P1;durP1;ratioP1;P2;durP2;ratioP2
142;SDS011;63667;49.046;8.468;2023-04-03T00:00:23;5.30;;;3.40;;
142;SDS011;63667;49.046;8.468;2023-04-03T00:02:51;3.70;;;3.57;;
142;SDS011;63667;49.046;8.468;2023-04-03T00:05:18;5.73;;;3.67;;
142;SDS011;63667;49.046;8.468;2023-04-03T00:07:46;4.77;;;3.57;;
142;SDS011;63667;49.046;8.468;2023-04-03T00:10:15;4.70;;;3.60;;
142;SDS011;63667;49.046;8.468;2023-04-03T00:12:42;11.27;;;4.03;;
142;SDS011;63667;49.046;8.468;2023-04-03T00:15:10;6.30;;;3.80;;
142;SDS011;63667;49.046;8.468;2023-04-03T00:17:37;5.10;;;3.47;;
142;SDS011;63667;49.046;8.468;2023-04-03T00:20:04;4.93;;;3.43;;
142;SDS011;63667;49.046;8.468;2023-04-03T00:22:33;5.40;;;3.30;;
142;SDS011;63667;49.046;8.468;2023-04-03T00:25:01;4.43;;;3.57;;
142;SDS011;63667;49.046;8.468;2023-04-03T00:27:28;4.43;;;3.70;;
142;SDS011;63667;49.046;8.468;2023-04-03T00:29:55;7.93;;;3.97;;
142;SDS011;63667;49.046;8.468;2023-04-03T00:32:22;3.97;;;3.50;;
142;SDS011;63667;49.046;8.468;2023-04-03T00:34:49;6.30;;;3.90;;
142;SDS011;63667;49.046;8.468;2023-04-03T00:37:17;8.83;;;3.90;;
142;SDS011;63667;49.046;8.468;2023-04-03T00:39:45;6.97;;;3.70;;
142;SDS011;63667;49.046;8.468;2023-04-03T00:42:12;4.27;;;3.60;;
142;SDS011;63667;49.046;8.468;2023-04-03T00:47:07;4.27;;;3.60;;
142;SDS011;63667;49.046;8.468;2023-04-03T00:49:34;6.13;;;3.60;;
142;SDS011;63667;49.046;8.468;2023-04-03T00:52:02;4.47;;;3.80;;
142;SDS011;63667;49.046;8.468;2023-04-03T00:54:29;4.83;;;3.30;;
142;SDS011;63667;49.046;8.468;2023-04-03T00:56:56;7.67;;;3.80;;
142;SDS011;63667;49.046;8.468;2023-04-03T00:59:25;7.10;;;3.33;;
142;SDS011;63667;49.046;8.468;2023-04-03T01:01:54;6.80;;;3.63;;
142;SDS011;63667;49.046;8.468;2023-04-03T01:04:28;5.50;;;3.43;;
142;SDS011;63667;49.046;8.468;2023-04-03T01:06:57;9.17;;;4.20;;
142;SDS011;63667;49.046;8.468;2023-04-03T01:09:25;7.80;;;3.73;;
142;SDS011;63667;49.046;8.468;2023-04-03T01:11:52;4.77;;;3.47;;
142;SDS011;63667;49.046;8.468;2023-04-03T01:14:20;5.90;;;3.60;;
142;SDS011;63667;49.046;8.468;2023-04-03T01:16:52;4.20;;;3.33;;
142;SDS011;63667;49.046;8.468;2023-04-03T01:19:19;4.77;;;3.30;;
142;SDS011;63667;49.046;8.468;2023-04-03T01:26:48;4.93;;;3.00;;
142;SDS011;63667;49.046;8.468;2023-04-03T01:29:16;7.60;;;3.70;;
142;SDS011;63667;49.046;8.468;2023-04-03T01:34:12;6.40;;;3.17;;
142;SDS011;63667;49.046;8.468;2023-04-03T01:36:40;8.50;;;3.90;;
142;SDS011;63667;49.046;8.468;2023-04-03T01:39:08;4.73;;;3.40;;
142;SDS011;63667;49.046;8.468;2023-04-03T01:41:39;6.53;;;3.80;;
142;SDS011;63667;49.046;8.468;2023-04-03T01:44:07;6.40;;;3.93;;
142;SDS011;63667;49.046;8.468;2023-04-03T01:46:35;8.17;;;4.30;;
142;SDS011;63667;49.046;8.468;2023-04-03T01:49:03;7.47;;;4.30;;
142;SDS011;63667;49.046;8.468;2023-04-03T01:51:31;5.00;;;4.20;;
142;SDS011;63667;49.046;8.468;2023-04-03T01:53:59;6.33;;;4.90;;
142;SDS011;63667;49.046;8.468;2023-04-03T01:56:27;5.27;;;4.20;;
142;SDS011;63667;49.046;8.468;2023-04-03T01:58:54;10.63;;;4.97;;
142;SDS011;63667;49.046;8.468;2023-04-03T02:01:21;6.13;;;4.53;;
142;SDS011;63667;49.046;8.468;2023-04-03T02:03:49;7.43;;;4.60;;
142;SDS011;63667;49.046;8.468;2023-04-03T02:06:16;6.50;;;4.37;;
142;SDS011;63667;49.046;8.468;2023-04-03T02:08:43;5.87;;;4.00;;
142;SDS011;63667;49.046;8.468;2023-04-03T02:11:11;8.20;;;4.83;;
142;SDS011;63667;49.046;8.468;2023-04-03T02:13:37;5.87;;;4.50;;
142;SDS011;63667;49.046;8.468;2023-04-03T02:16:08;7.47;;;4.73;;
142;SDS011;63667;49.046;8.468;2023-04-03T02:18:35;7.50;;;4.43;;
142;SDS011;63667;49.046;8.468;2023-04-03T02:21:03;7.37;;;4.57;;
142;SDS011;63667;49.046;8.468;2023-04-03T02:23:30;6.13;;;4.30;;
142;SDS011;63667;49.046;8.468;2023-04-03T02:26:03;5.93;;;4.70;;
142;SDS011;63667;49.046;8.468;2023-04-03T02:28:31;6.57;;;4.70;;
142;SDS011;63667;49.046;8.468;2023-04-03T02:30:58;6.90;;;5.00;;
142;SDS011;63667;49.046;8.468;2023-04-03T02:33:26;7.53;;;5.33;;
142;SDS011;63667;49.046;8.468;2023-04-03T02:35:54;7.83;;;5.07;;
142;SDS011;63667;49.046;8.468;2023-04-03T02:38:21;12.37;;;5.83;;
142;SDS011;63667;49.046;8.468;2023-04-03T02:40:48;7.53;;;4.97;;
142;SDS011;63667;49.046;8.468;2023-04-03T02:43:16;6.50;;;4.50;;
142;SDS011;63667;49.046;8.468;2023-04-03T02:45:44;6.60;;;4.50;;
142;SDS011;63667;49.046;8.468;2023-04-03T02:48:12;5.53;;;4.70;;
142;SDS011;63667;49.046;8.468;2023-04-03T02:50:41;6.20;;;4.60;;
142;SDS011;63667;49.046;8.468;2023-04-03T02:53:07;8.23;;;5.50;;
142;SDS011;63667;49.046;8.468;2023-04-03T02:55:35;7.17;;;5.40;;
142;SDS011;63667;49.046;8.468;2023-04-03T02:58:02;10.57;;;5.60;;
142;SDS011;63667;49.046;8.468;2023-04-03T03:00:30;7.07;;;4.50;;
142;SDS011;63667;49.046;8.468;2023-04-03T03:02:57;6.80;;;4.70;;
142;SDS011;63667;49.046;8.468;2023-04-03T03:05:25;6.30;;;4.80;;
142;SDS011;63667;49.046;8.468;2023-04-03T03:07:53;7.93;;;4.80;;
142;SDS011;63667;49.046;8.468;2023-04-03T03:10:21;5.90;;;4.83;;
142;SDS011;63667;49.046;8.468;2023-04-03T03:12:49;9.03;;;4.70;;
142;SDS011;63667;49.046;8.468;2023-04-03T03:15:16;13.87;;;5.60;;
142;SDS011;63667;49.046;8.468;2023-04-03T03:17:45;9.80;;;5.30;;
142;SDS011;63667;49.046;8.468;2023-04-03T03:20:12;8.97;;;5.00;;
142;SDS011;63667;49.046;8.468;2023-04-03T03:22:42;5.97;;;4.70;;
142;SDS011;63667;49.046;8.468;2023-04-03T03:25:10;7.17;;;5.00;;
142;SDS011;63667;49.046;8.468;2023-04-03T03:27:37;8.40;;;5.50;;
142;SDS011;63667;49.046;8.468;2023-04-03T03:30:05;9.30;;;5.30;;
142;SDS011;63667;49.046;8.468;2023-04-03T03:32:34;7.10;;;5.33;;
142;SDS011;63667;49.046;8.468;2023-04-03T03:35:00;8.47;;;5.37;;
142;SDS011;63667;49.046;8.468;2023-04-03T03:37:28;10.37;;;4.57;;
142;SDS011;63667;49.046;8.468;2023-04-03T03:39:56;8.60;;;5.63;;
142;SDS011;63667;49.046;8.468;2023-04-03T03:42:24;10.03;;;4.77;;
142;SDS011;63667;49.046;8.468;2023-04-03T03:44:51;7.80;;;5.40;;
142;SDS011;63667;49.046;8.468;2023-04-03T03:47:19;9.20;;;5.20;;
142;SDS011;63667;49.046;8.468;2023-04-03T03:49:46;6.60;;;4.80;;
142;SDS011;63667;49.046;8.468;2023-04-03T03:52:13;8.20;;;4.87;;
142;SDS011;63667;49.046;8.468;2023-04-03T03:54:41;8.33;;;5.20;;
142;SDS011;63667;49.046;8.468;2023-04-03T03:57:08;9.53;;;5.10;;
142;SDS011;63667;49.046;8.468;2023-04-03T03:59:36;8.00;;;5.37;;
142;SDS011;63667;49.046;8.468;2023-04-03T04:02:06;8.47;;;5.03;;
142;SDS011;63667;49.046;8.468;2023-04-03T04:04:33;6.57;;;5.10;;
142;SDS011;63667;49.046;8.468;2023-04-03T04:07:01;11.30;;;5.60;;
142;SDS011;63667;49.046;8.468;2023-04-03T04:09:29;6.33;;;4.53;;
142;SDS011;63667;49.046;8.468;2023-04-03T04:11:57;15.50;;;5.63;;
142;SDS011;63667;49.046;8.468;2023-04-03T04:14:24;8.53;;;4.97;;
142;SDS011;63667;49.046;8.468;2023-04-03T04:16:52;6.90;;;4.50;;
142;SDS011;63667;49.046;8.468;2023-04-03T04:19:19;8.83;;;4.73;;
142;SDS011;63667;49.046;8.468;2023-04-03T04:21:47;6.83;;;4.70;;
142;SDS011;63667;49.046;8.468;2023-04-03T04:24:14;11.20;;;4.90;;
142;SDS011;63667;49.046;8.468;2023-04-03T04:26:41;5.63;;;4.50;;
142;SDS011;63667;49.046;8.468;2023-04-03T04:29:09;10.53;;;5.20;;
142;SDS011;63667;49.046;8.468;2023-04-03T04:31:37;9.13;;;5.47;;
142;SDS011;63667;49.046;8.468;2023-04-03T04:34:05;6.50;;;4.53;;
142;SDS011;63667;49.046;8.468;2023-04-03T04:36:31;10.10;;;4.87;;
142;SDS011;63667;49.046;8.468;2023-04-03T04:38:59;6.80;;;4.33;;
142;SDS011;63667;49.046;8.468;2023-04-03T04:41:26;6.57;;;4.97;;
142;SDS011;63667;49.046;8.468;2023-04-03T04:43:52;8.67;;;5.40;;
142;SDS011;63667;49.046;8.468;2023-04-03T04:46:19;12.40;;;4.63;;
142;SDS011;63667;49.046;8.468;2023-04-03T04:48:47;9.30;;;4.40;;
142;SDS011;63667;49.046;8.468;2023-04-03T04:51:14;8.60;;;4.60;;
142;SDS011;63667;49.046;8.468;2023-04-03T04:53:41;6.73;;;4.23;;
142;SDS011;63667;49.046;8.468;2023-04-03T04:56:08;7.60;;;4.20;;
142;SDS011;63667;49.046;8.468;2023-04-03T04:58:34;6.43;;;4.27;;
142;SDS011;63667;49.046;8.468;2023-04-03T05:01:02;7.70;;;3.73;;
142;SDS011;63667;49.046;8.468;2023-04-03T05:03:28;7.63;;;4.60;;
142;SDS011;63667;49.046;8.468;2023-04-03T05:05:55;7.63;;;4.67;;
142;SDS011;63667;49.046;8.468;2023-04-03T05:08:21;5.90;;;4.70;;
142;SDS011;63667;49.046;8.468;2023-04-03T05:10:49;9.83;;;4.80;;
142;SDS011;63667;49.046;8.468;2023-04-03T05:13:16;5.90;;;4.70;;
142;SDS011;63667;49.046;8.468;2023-04-03T05:15:43;7.30;;;4.93;;
142;SDS011;63667;49.046;8.468;2023-04-03T05:18:09;9.10;;;5.27;;
142;SDS011;63667;49.046;8.468;2023-04-03T05:20:36;7.97;;;6.00;;
142;SDS011;63667;49.046;8.468;2023-04-03T05:23:04;12.33;;;6.83;;
142;SDS011;63667;49.046;8.468;2023-04-03T05:25:31;15.17;;;6.47;;
142;SDS011;63667;49.046;8.468;2023-04-03T05:27:59;12.20;;;5.60;;
142;SDS011;63667;49.046;8.468;2023-04-03T05:30:26;9.00;;;4.80;;
142;SDS011;63667;49.046;8.468;2023-04-03T05:32:54;7.13;;;4.83;;
142;SDS011;63667;49.046;8.468;2023-04-03T05:35:21;8.20;;;5.40;;
142;SDS011;63667;49.046;8.468;2023-04-03T05:37:48;7.90;;;5.40;;
142;SDS011;63667;49.046;8.468;2023-04-03T05:40:16;7.97;;;5.50;;
142;SDS011;63667;49.046;8.468;2023-04-03T05:42:44;8.47;;;5.03;;
142;SDS011;63667;49.046;8.468;2023-04-03T05:45:12;8.80;;;5.30;;
142;SDS011;63667;49.046;8.468;2023-04-03T05:47:38;8.00;;;4.93;;
142;SDS011;63667;49.046;8.468;2023-04-03T05:50:05;7.80;;;4.37;;
142;SDS011;63667;49.046;8.468;2023-04-03T05:52:33;5.13;;;4.53;;
142;SDS011;63667;49.046;8.468;2023-04-03T05:55:00;5.90;;;4.47;;
142;SDS011;63667;49.046;8.468;2023-04-03T05:57:27;5.83;;;4.80;;
142;SDS011;63667;49.046;8.468;2023-04-03T05:59:54;9.37;;;4.90;;
142;SDS011;63667;49.046;8.468;2023-04-03T06:02:21;7.53;;;4.77;;
142;SDS011;63667;49.046;8.468;2023-04-03T06:04:48;9.30;;;5.43;;
142;SDS011;63667;49.046;8.468;2023-04-03T06:07:15;7.20;;;5.20;;
142;SDS011;63667;49.046;8.468;2023-04-03T06:09:42;8.47;;;5.07;;
142;SDS011;63667;49.046;8.468;2023-04-03T06:12:09;12.03;;;5.47;;
142;SDS011;63667;49.046;8.468;2023-04-03T06:14:37;9.53;;;4.90;;
142;SDS011;63667;49.046;8.468;2023-04-03T06:17:03;8.87;;;5.40;;
142;SDS011;63667;49.046;8.468;2023-04-03T06:19:30;6.87;;;5.30;;
142;SDS011;63667;49.046;8.468;2023-04-03T06:21:57;8.80;;;5.30;;
142;SDS011;63667;49.046;8.468;2023-04-03T06:24:25;9.83;;;5.37;;
142;SDS011;63667;49.046;8.468;2023-04-03T06:26:52;7.50;;;5.03;;
142;SDS011;63667;49.046;8.468;2023-04-03T06:29:19;8.10;;;5.23;;
142;SDS011;63667;49.046;8.468;2023-04-03T06:31:47;7.00;;;5.20;;
142;SDS011;63667;49.046;8.468;2023-04-03T06:34:14;11.67;;;5.33;;
142;SDS011;63667;49.046;8.468;2023-04-03T06:36:42;7.60;;;5.50;;
142;SDS011;63667;49.046;8.468;2023-04-03T06:39:14;9.53;;;5.77;;
142;SDS011;63667;49.046;8.468;2023-04-03T06:41:41;13.13;;;5.70;;
142;SDS011;63667;49.046;8.468;2023-04-03T06:44:08;11.40;;;5.27;;
142;SDS011;63667;49.046;8.468;2023-04-03T06:46:37;8.17;;;5.20;;
142;SDS011;63667;49.046;8.468;2023-04-03T06:49:04;9.23;;;4.93;;
142;SDS011;63667;49.046;8.468;2023-04-03T06:51:51;13.10;;;5.87;;
142;SDS011;63667;49.046;8.468;2023-04-03T06:54:19;9.30;;;5.50;;
142;SDS011;63667;49.046;8.468;2023-04-03T06:56:46;8.20;;;5.10;;
142;SDS011;63667;49.046;8.468;2023-04-03T06:59:13;8.83;;;4.63;;
142;SDS011;63667;49.046;8.468;2023-04-03T07:01:40;10.93;;;5.40;;
142;SDS011;63667;49.046;8.468;2023-04-03T07:04:08;12.93;;;4.83;;
142;SDS011;63667;49.046;8.468;2023-04-03T07:06:36;9.03;;;5.10;;
142;SDS011;63667;49.046;8.468;2023-04-03T07:09:03;8.00;;;4.80;;
142;SDS011;63667;49.046;8.468;2023-04-03T07:11:30;9.57;;;5.73;;
142;SDS011;63667;49.046;8.468;2023-04-03T07:13:58;7.43;;;5.00;;
142;SDS011;63667;49.046;8.468;2023-04-03T07:16:25;7.50;;;4.43;;
142;SDS011;63667;49.046;8.468;2023-04-03T07:18:53;6.83;;;5.00;;
142;SDS011;63667;49.046;8.468;2023-04-03T07:21:20;6.77;;;4.87;;
142;SDS011;63667;49.046;8.468;2023-04-03T07:23:48;10.90;;;5.10;;
142;SDS011;63667;49.046;8.468;2023-04-03T07:26:15;7.53;;;5.40;;
142;SDS011;63667;49.046;8.468;2023-04-03T07:28:43;9.50;;;5.47;;
142;SDS011;63667;49.046;8.468;2023-04-03T07:31:13;9.30;;;5.70;;
142;SDS011;63667;49.046;8.468;2023-04-03T07:33:41;9.90;;;5.60;;
142;SDS011;63667;49.046;8.468;2023-04-03T07:36:08;8.27;;;5.50;;
142;SDS011;63667;49.046;8.468;2023-04-03T07:38:36;8.90;;;5.63;;
142;SDS011;63667;49.046;8.468;2023-04-03T07:41:04;9.07;;;5.50;;
142;SDS011;63667;49.046;8.468;2023-04-03T07:43:31;13.30;;;6.30;;
142;SDS011;63667;49.046;8.468;2023-04-03T07:46:00;7.30;;;5.40;;
142;SDS011;63667;49.046;8.468;2023-04-03T07:48:28;11.47;;;5.67;;
142;SDS011;63667;49.046;8.468;2023-04-03T07:50:59;12.10;;;6.20;;
142;SDS011;63667;49.046;8.468;2023-04-03T07:53:26;10.10;;;6.00;;
142;SDS011;63667;49.046;8.468;2023-04-03T07:55:53;7.77;;;5.27;;
142;SDS011;63667;49.046;8.468;2023-04-03T07:58:22;9.23;;;5.90;;
142;SDS011;63667;49.046;8.468;2023-04-03T08:00:51;7.13;;;5.07;;
142;SDS011;63667;49.046;8.468;2023-04-03T08:03:18;9.67;;;5.43;;
142;SDS011;63667;49.046;8.468;2023-04-03T08:05:47;9.40;;;5.40;;
142;SDS011;63667;49.046;8.468;2023-04-03T08:08:19;7.93;;;5.83;;
142;SDS011;63667;49.046;8.468;2023-04-03T08:10:52;8.60;;;5.70;;
142;SDS011;63667;49.046;8.468;2023-04-03T08:13:20;7.80;;;5.73;;
142;SDS011;63667;49.046;8.468;2023-04-03T08:15:47;13.90;;;5.70;;
142;SDS011;63667;49.046;8.468;2023-04-03T08:18:15;8.93;;;5.70;;
142;SDS011;63667;49.046;8.468;2023-04-03T08:20:42;13.93;;;5.73;;
142;SDS011;63667;49.046;8.468;2023-04-03T08:23:12;12.53;;;5.90;;
142;SDS011;63667;49.046;8.468;2023-04-03T08:25:41;10.23;;;5.70;;
142;SDS011;63667;49.046;8.468;2023-04-03T08:28:08;11.50;;;5.60;;
142;SDS011;63667;49.046;8.468;2023-04-03T08:30:35;10.00;;;6.00;;
142;SDS011;63667;49.046;8.468;2023-04-03T08:33:03;6.60;;;5.10;;
142;SDS011;63667;49.046;8.468;2023-04-03T08:35:30;9.67;;;5.80;;
142;SDS011;63667;49.046;8.468;2023-04-03T08:37:58;9.30;;;5.00;;
142;SDS011;63667;49.046;8.468;2023-04-03T08:40:26;6.63;;;4.90;;
142;SDS011;63667;49.046;8.468;2023-04-03T08:48:31;10.63;;;4.70;;
142;SDS011;63667;49.046;8.468;2023-04-03T08:50:59;6.90;;;4.80;;
142;SDS011;63667;49.046;8.468;2023-04-03T08:53:32;5.33;;;4.77;;
142;SDS011;63667;49.046;8.468;2023-04-03T08:56:00;8.40;;;4.60;;
142;SDS011;63667;49.046;8.468;2023-04-03T08:58:30;10.37;;;4.90;;
142;SDS011;63667;49.046;8.468;2023-04-03T09:01:03;13.50;;;5.63;;
142;SDS011;63667;49.046;8.468;2023-04-03T09:03:31;6.77;;;4.67;;
142;SDS011;63667;49.046;8.468;2023-04-03T09:06:07;7.17;;;4.70;;
142;SDS011;63667;49.046;8.468;2023-04-03T09:08:53;8.53;;;4.93;;
142;SDS011;63667;49.046;8.468;2023-04-03T09:12:00;9.53;;;4.33;;
142;SDS011;63667;49.046;8.468;2023-04-03T09:14:24;7.70;;;4.50;;
142;SDS011;63667;49.046;8.468;2023-04-03T09:16:56;7.50;;;4.60;;
142;SDS011;63667;49.046;8.468;2023-04-03T09:22:07;6.37;;;4.40;;
142;SDS011;63667;49.046;8.468;2023-04-03T09:24:36;5.23;;;4.50;;
142;SDS011;63667;49.046;8.468;2023-04-03T09:27:04;11.47;;;4.40;;
142;SDS011;63667;49.046;8.468;2023-04-03T09:29:35;8.93;;;4.20;;
142;SDS011;63667;49.046;8.468;2023-04-03T09:32:11;6.40;;;4.00;;
142;SDS011;63667;49.046;8.468;2023-04-03T09:34:39;6.23;;;3.90;;
142;SDS011;63667;49.046;8.468;2023-04-03T09:37:08;7.77;;;3.80;;
142;SDS011;63667;49.046;8.468;2023-04-03T09:39:51;4.00;;;3.80;;
142;SDS011;63667;49.046;8.468;2023-04-03T09:42:21;7.00;;;3.77;;
142;SDS011;63667;49.046;8.468;2023-04-03T09:44:58;7.83;;;3.90;;
142;SDS011;63667;49.046;8.468;2023-04-03T09:47:32;4.73;;;3.80;;
142;SDS011;63667;49.046;8.468;2023-04-03T09:52:59;4.53;;;3.50;;
142;SDS011;63667;49.046;8.468;2023-04-03T09:55:30;9.10;;;3.83;;
142;SDS011;63667;49.046;8.468;2023-04-03T09:57:59;5.03;;;3.33;;
142;SDS011;63667;49.046;8.468;2023-04-03T10:00:37;4.70;;;3.27;;
142;SDS011;63667;49.046;8.468;2023-04-03T10:03:05;4.93;;;3.70;;
142;SDS011;63667;49.046;8.468;2023-04-03T10:08:15;7.27;;;4.07;;
142;SDS011;63667;49.046;8.468;2023-04-03T10:10:47;4.23;;;3.47;;
142;SDS011;63667;49.046;8.468;2023-04-03T10:13:17;7.87;;;3.67;;
142;SDS011;63667;49.046;8.468;2023-04-03T10:18:49;8.03;;;3.60;;
142;SDS011;63667;49.046;8.468;2023-04-03T10:21:38;7.63;;;3.70;;
142;SDS011;63667;49.046;8.468;2023-04-03T10:29:20;6.33;;;3.70;;
142;SDS011;63667;49.046;8.468;2023-04-03T10:36:56;9.93;;;3.83;;
142;SDS011;63667;49.046;8.468;2023-04-03T10:44:54;6.00;;;3.40;;
142;SDS011;63667;49.046;8.468;2023-04-03T10:47:37;5.70;;;3.77;;
142;SDS011;63667;49.046;8.468;2023-04-03T10:52:46;6.57;;;3.37;;
142;SDS011;63667;49.046;8.468;2023-04-03T10:55:58;8.20;;;3.57;;
142;SDS011;63667;49.046;8.468;2023-04-03T10:58:05;5.97;;;3.07;;
142;SDS011;63667;49.046;8.468;2023-04-03T11:00:38;5.27;;;3.17;;
142;SDS011;63667;49.046;8.468;2023-04-03T11:05:52;3.27;;;2.90;;
142;SDS011;63667;49.046;8.468;2023-04-03T11:08:34;3.27;;;2.80;;
142;SDS011;63667;49.046;8.468;2023-04-03T11:11:12;3.17;;;2.70;;
142;SDS011;63667;49.046;8.468;2023-04-03T11:16:06;4.87;;;3.37;;
142;SDS011;63667;49.046;8.468;2023-04-03T11:18:39;7.73;;;2.97;;
142;SDS011;63667;49.046;8.468;2023-04-03T11:23:36;3.30;;;2.80;;
142;SDS011;63667;49.046;8.468;2023-04-03T11:26:10;7.63;;;3.10;;
142;SDS011;63667;49.046;8.468;2023-04-03T11:28:37;5.20;;;3.67;;
142;SDS011;63667;49.046;8.468;2023-04-03T11:37:03;7.40;;;3.40;;
142;SDS011;63667;49.046;8.468;2023-04-03T11:39:33;4.70;;;3.20;;
142;SDS011;63667;49.046;8.468;2023-04-03T11:47:48;8.17;;;3.50;;
142;SDS011;63667;49.046;8.468;2023-04-03T11:53:10;6.00;;;2.90;;
142;SDS011;63667;49.046;8.468;2023-04-03T12:05:56;3.70;;;3.23;;
142;SDS011;63667;49.046;8.468;2023-04-03T12:16:18;5.87;;;3.80;;
142;SDS011;63667;49.046;8.468;2023-04-03T12:18:55;5.90;;;3.63;;
142;SDS011;63667;49.046;8.468;2023-04-03T12:22:04;4.60;;;3.60;;
142;SDS011;63667;49.046;8.468;2023-04-03T12:45:23;4.20;;;3.50;;
142;SDS011;63667;49.046;8.468;2023-04-03T12:47:51;4.87;;;3.40;;
142;SDS011;63667;49.046;8.468;2023-04-03T12:50:22;7.53;;;3.40;;
142;SDS011;63667;49.046;8.468;2023-04-03T12:52:59;4.40;;;3.33;;
142;SDS011;63667;49.046;8.468;2023-04-03T12:55:39;4.50;;;3.50;;
142;SDS011;63667;49.046;8.468;2023-04-03T13:01:03;4.93;;;3.60;;
142;SDS011;63667;49.046;8.468;2023-04-03T13:03:54;6.93;;;3.70;;
142;SDS011;63667;49.046;8.468;2023-04-03T13:08:56;7.53;;;3.70;;
142;SDS011;63667;49.046;8.468;2023-04-03T13:11:36;5.17;;;4.17;;
142;SDS011;63667;49.046;8.468;2023-04-03T13:14:17;7.00;;;4.00;;
142;SDS011;63667;49.046;8.468;2023-04-03T13:17:03;8.23;;;3.40;;
142;SDS011;63667;49.046;8.468;2023-04-03T13:19:36;6.63;;;3.93;;
142;SDS011;63667;49.046;8.468;2023-04-03T13:22:05;3.70;;;3.50;;
142;SDS011;63667;49.046;8.468;2023-04-03T13:25:00;14.87;;;3.83;;
142;SDS011;63667;49.046;8.468;2023-04-03T13:27:31;6.30;;;3.40;;
142;SDS011;63667;49.046;8.468;2023-04-03T13:30:00;4.27;;;3.00;;
142;SDS011;63667;49.046;8.468;2023-04-03T13:32:31;4.33;;;3.43;;
142;SDS011;63667;49.046;8.468;2023-04-03T13:34:59;5.93;;;3.40;;
142;SDS011;63667;49.046;8.468;2023-04-03T13:42:34;4.33;;;3.47;;
142;SDS011;63667;49.046;8.468;2023-04-03T13:45:22;5.00;;;3.67;;
142;SDS011;63667;49.046;8.468;2023-04-03T13:48:16;5.80;;;3.70;;
142;SDS011;63667;49.046;8.468;2023-04-03T13:51:00;8.10;;;3.63;;
142;SDS011;63667;49.046;8.468;2023-04-03T13:53:44;4.00;;;3.30;;
142;SDS011;63667;49.046;8.468;2023-04-03T13:56:22;7.83;;;3.33;;
142;SDS011;63667;49.046;8.468;2023-04-03T13:58:54;3.93;;;3.43;;
142;SDS011;63667;49.046;8.468;2023-04-03T14:01:38;20.40;;;4.33;;
142;SDS011;63667;49.046;8.468;2023-04-03T14:04:27;7.47;;;4.00;;
142;SDS011;63667;49.046;8.468;2023-04-03T14:06:58;6.50;;;3.90;;
142;SDS011;63667;49.046;8.468;2023-04-03T14:09:26;4.83;;;3.90;;
142;SDS011;63667;49.046;8.468;2023-04-03T14:11:55;8.00;;;4.33;;
142;SDS011;63667;49.046;8.468;2023-04-03T14:14:27;4.93;;;3.87;;
142;SDS011;63667;49.046;8.468;2023-04-03T14:16:58;8.30;;;3.90;;
142;SDS011;63667;49.046;8.468;2023-04-03T14:19:30;12.73;;;4.20;;
142;SDS011;63667;49.046;8.468;2023-04-03T14:22:00;6.23;;;4.43;;
142;SDS011;63667;49.046;8.468;2023-04-03T14:24:37;5.63;;;3.70;;
142;SDS011;63667;49.046;8.468;2023-04-03T14:27:05;5.77;;;3.50;;
142;SDS011;63667;49.046;8.468;2023-04-03T14:29:42;8.93;;;3.70;;
142;SDS011;63667;49.046;8.468;2023-04-03T14:32:11;7.30;;;3.67;;
142;SDS011;63667;49.046;8.468;2023-04-03T14:34:40;7.80;;;3.50;;
142;SDS011;63667;49.046;8.468;2023-04-03T14:37:09;5.43;;;3.90;;
142;SDS011;63667;49.046;8.468;2023-04-03T14:39:38;9.03;;;3.80;;
142;SDS011;63667;49.046;8.468;2023-04-03T14:42:06;7.30;;;3.37;;
142;SDS011;63667;49.046;8.468;2023-04-03T14:44:37;16.70;;;4.30;;
142;SDS011;63667;49.046;8.468;2023-04-03T14:47:04;5.13;;;3.30;;
142;SDS011;63667;49.046;8.468;2023-04-03T14:49:32;4.30;;;3.53;;
142;SDS011;63667;49.046;8.468;2023-04-03T14:51:59;4.20;;;4.00;;
142;SDS011;63667;49.046;8.468;2023-04-03T14:54:27;7.80;;;3.80;;
142;SDS011;63667;49.046;8.468;2023-04-03T14:56:55;8.47;;;4.73;;
142;SDS011;63667;49.046;8.468;2023-04-03T14:59:24;7.33;;;4.20;;
142;SDS011;63667;49.046;8.468;2023-04-03T15:01:52;6.80;;;4.10;;
142;SDS011;63667;49.046;8.468;2023-04-03T15:04:20;6.50;;;3.90;;
142;SDS011;63667;49.046;8.468;2023-04-03T15:06:48;5.93;;;3.80;;
142;SDS011;63667;49.046;8.468;2023-04-03T15:09:24;7.63;;;3.40;;
142;SDS011;63667;49.046;8.468;2023-04-03T15:11:54;6.40;;;3.60;;
142;SDS011;63667;49.046;8.468;2023-04-03T15:14:22;6.13;;;4.00;;
142;SDS011;63667;49.046;8.468;2023-04-03T15:16:48;6.27;;;3.30;;
142;SDS011;63667;49.046;8.468;2023-04-03T15:19:16;4.27;;;3.60;;
142;SDS011;63667;49.046;8.468;2023-04-03T15:21:43;8.40;;;3.87;;
142;SDS011;63667;49.046;8.468;2023-04-03T15:24:10;6.73;;;3.43;;
142;SDS011;63667;49.046;8.468;2023-04-03T15:26:37;6.43;;;3.97;;
142;SDS011;63667;49.046;8.468;2023-04-03T15:29:04;5.33;;;3.50;;
142;SDS011;63667;49.046;8.468;2023-04-03T15:31:32;5.40;;;3.60;;
142;SDS011;63667;49.046;8.468;2023-04-03T15:33:59;6.47;;;3.80;;
142;SDS011;63667;49.046;8.468;2023-04-03T15:36:27;7.90;;;3.50;;
142;SDS011;63667;49.046;8.468;2023-04-03T15:38:54;4.73;;;3.23;;
142;SDS011;63667;49.046;8.468;2023-04-03T15:41:22;9.67;;;3.97;;
142;SDS011;63667;49.046;8.468;2023-04-03T15:43:49;5.00;;;3.63;;
142;SDS011;63667;49.046;8.468;2023-04-03T15:46:17;5.20;;;3.97;;
142;SDS011;63667;49.046;8.468;2023-04-03T15:48:46;9.27;;;5.33;;
142;SDS011;63667;49.046;8.468;2023-04-03T15:51:13;3.83;;;3.50;;
142;SDS011;63667;49.046;8.468;2023-04-03T15:53:41;4.80;;;3.73;;
142;SDS011;63667;49.046;8.468;2023-04-03T15:56:09;6.63;;;4.10;;
142;SDS011;63667;49.046;8.468;2023-04-03T15:58:37;6.40;;;4.13;;
142;SDS011;63667;49.046;8.468;2023-04-03T16:01:04;7.40;;;4.20;;
142;SDS011;63667;49.046;8.468;2023-04-03T16:03:32;8.63;;;4.20;;
142;SDS011;63667;49.046;8.468;2023-04-03T16:06:00;6.10;;;3.70;;
142;SDS011;63667;49.046;8.468;2023-04-03T16:08:28;4.80;;;3.83;;
142;SDS011;63667;49.046;8.468;2023-04-03T16:10:55;7.83;;;4.10;;
142;SDS011;63667;49.046;8.468;2023-04-03T16:13:23;6.73;;;4.50;;
142;SDS011;63667;49.046;8.468;2023-04-03T16:15:51;4.40;;;3.50;;
142;SDS011;63667;49.046;8.468;2023-04-03T16:18:18;8.00;;;4.00;;
142;SDS011;63667;49.046;8.468;2023-04-03T16:20:46;5.50;;;3.90;;
142;SDS011;63667;49.046;8.468;2023-04-03T16:23:14;7.50;;;4.17;;
142;SDS011;63667;49.046;8.468;2023-04-03T16:25:41;5.10;;;4.03;;
142;SDS011;63667;49.046;8.468;2023-04-03T16:28:15;8.37;;;4.27;;
142;SDS011;63667;49.046;8.468;2023-04-03T16:30:44;10.37;;;3.97;;
142;SDS011;63667;49.046;8.468;2023-04-03T16:33:12;4.80;;;3.80;;
142;SDS011;63667;49.046;8.468;2023-04-03T16:35:40;5.37;;;4.00;;
142;SDS011;63667;49.046;8.468;2023-04-03T16:38:07;7.30;;;4.30;;
142;SDS011;63667;49.046;8.468;2023-04-03T16:40:35;6.00;;;3.83;;
142;SDS011;63667;49.046;8.468;2023-04-03T16:43:02;3.93;;;3.10;;
142;SDS011;63667;49.046;8.468;2023-04-03T16:45:30;6.40;;;4.00;;
142;SDS011;63667;49.046;8.468;2023-04-03T16:47:58;6.13;;;3.53;;
142;SDS011;63667;49.046;8.468;2023-04-03T16:50:25;7.87;;;4.40;;
142;SDS011;63667;49.046;8.468;2023-04-03T16:52:52;5.50;;;4.20;;
142;SDS011;63667;49.046;8.468;2023-04-03T16:55:20;10.27;;;5.30;;
142;SDS011;63667;49.046;8.468;2023-04-03T16:57:47;5.27;;;4.30;;
142;SDS011;63667;49.046;8.468;2023-04-03T17:00:15;4.30;;;3.97;;
142;SDS011;63667;49.046;8.468;2023-04-03T17:02:43;7.80;;;4.20;;
142;SDS011;63667;49.046;8.468;2023-04-03T17:05:10;4.90;;;3.90;;
142;SDS011;63667;49.046;8.468;2023-04-03T17:07:38;5.53;;;3.97;;
142;SDS011;63667;49.046;8.468;2023-04-03T17:10:06;6.60;;;3.70;;
142;SDS011;63667;49.046;8.468;2023-04-03T17:12:35;7.07;;;4.03;;
142;SDS011;63667;49.046;8.468;2023-04-03T17:15:03;4.83;;;3.57;;
142;SDS011;63667;49.046;8.468;2023-04-03T17:17:32;6.40;;;3.80;;
142;SDS011;63667;49.046;8.468;2023-04-03T17:19:58;4.37;;;3.67;;
142;SDS011;63667;49.046;8.468;2023-04-03T17:22:27;10.83;;;4.53;;
142;SDS011;63667;49.046;8.468;2023-04-03T17:24:55;6.07;;;4.23;;